sensor_id;sensor_type;location;lat;lon;timestamp;temperature;humidity
6738;DHT22;3406;49.902;8.596;2023-11-21T00:01:57;10.10;96.80
6738;DHT22;3406;49.902;8.596;2023-11-21T00:04:24;10.10;96.90
6738;DHT22;3406;49.902;8.596;2023-11-21T00:06:54;10.10;96.90
6738;DHT22;3406;49.902;8.596;2023-11-21T00:09:23;10.10;97.00
6738;DHT22;3406;49.902;8.596;2023-11-21T00:11:49;10.10;97.10
6738;DHT22;3406;49.902;8.596;2023-11-21T00:14:16;10.10;97.20
6738;DHT22;3406;49.902;8.596;2023-11-21T00:16:43;10.10;97.30
6738;DHT22;3406;49.902;8.596;2023-11-21T00:19:09;10.10;97.30
6738;DHT22;3406;49.902;8.596;2023-11-21T00:21:36;10.00;97.40
6738;DHT22;3406;49.902;8.596;2023-11-21T00:24:03;10.00;97.50
6738;DHT22;3406;49.902;8.596;2023-11-21T00:26:31;10.00;97.60
6738;DHT22;3406;49.902;8.596;2023-11-21T00:29:02;10.00;97.70
6738;DHT22;3406;49.902;8.596;2023-11-21T00:31:28;10.00;97.80
6738;DHT22;3406;49.902;8.596;2023-11-21T00:33:56;9.90;98.50
6738;DHT22;3406;49.902;8.596;2023-11-21T00:36:22;9.90;98.60
6738;DHT22;3406;49.902;8.596;2023-11-21T00:38:49;9.90;98.80
6738;DHT22;3406;49.902;8.596;2023-11-21T00:41:16;9.90;98.90
6738;DHT22;3406;49.902;8.596;2023-11-21T00:43:44;9.90;99.30
6738;DHT22;3406;49.902;8.596;2023-11-21T00:46:11;9.90;99.10
6738;DHT22;3406;49.902;8.596;2023-11-21T00:48:38;9.90;99.10
6738;DHT22;3406;49.902;8.596;2023-11-21T00:51:05;9.80;99.20
6738;DHT22;3406;49.902;8.596;2023-11-21T00:53:32;9.80;99.60
6738;DHT22;3406;49.902;8.596;2023-11-21T00:55:59;9.80;99.40
6738;DHT22;3406;49.902;8.596;2023-11-21T00:58:25;9.80;99.50
6738;DHT22;3406;49.902;8.596;2023-11-21T01:00:54;9.90;99.60
6738;DHT22;3406;49.902;8.596;2023-11-21T01:03:21;9.90;99.60
6738;DHT22;3406;49.902;8.596;2023-11-21T01:05:48;9.90;99.70
6738;DHT22;3406;49.902;8.596;2023-11-21T01:08:15;9.90;99.80
6738;DHT22;3406;49.902;8.596;2023-11-21T01:10:42;9.90;99.80
6738;DHT22;3406;49.902;8.596;2023-11-21T01:13:09;9.90;99.80
6738;DHT22;3406;49.902;8.596;2023-11-21T01:15:36;9.90;99.90
6738;DHT22;3406;49.902;8.596;2023-11-21T01:18:04;9.90;99.90
6738;DHT22;3406;49.902;8.596;2023-11-21T01:20:31;9.90;99.90
6738;DHT22;3406;49.902;8.596;2023-11-21T01:22:57;9.90;99.90
6738;DHT22;3406;49.902;8.596;2023-11-21T01:25:25;9.90;99.90
6738;DHT22;3406;49.902;8.596;2023-11-21T01:27:52;9.90;99.90
6738;DHT22;3406;49.902;8.596;2023-11-21T01:30:18;9.90;99.90
6738;DHT22;3406;49.902;8.596;2023-11-21T01:32:46;9.90;99.90
6738;DHT22;3406;49.902;8.596;2023-11-21T01:35:14;9.90;99.90
6738;DHT22;3406;49.902;8.596;2023-11-21T01:37:41;9.90;99.90
6738;DHT22;3406;49.902;8.596;2023-11-21T01:40:08;9.90;99.90
6738;DHT22;3406;49.902;8.596;2023-11-21T01:42:39;9.90;99.90
6738;DHT22;3406;49.902;8.596;2023-11-21T01:45:06;9.90;99.90
6738;DHT22;3406;49.902;8.596;2023-11-21T01:47:34;9.90;99.90
6738;DHT22;3406;49.902;8.596;2023-11-21T01:50:01;10.00;99.90
6738;DHT22;3406;49.902;8.596;2023-11-21T01:52:31;10.00;99.90
6738;DHT22;3406;49.902;8.596;2023-11-21T01:54:58;10.00;99.90
6738;DHT22;3406;49.902;8.596;2023-11-21T01:57:25;10.00;99.90
6738;DHT22;3406;49.902;8.596;2023-11-21T01:59:54;10.00;99.90
6738;DHT22;3406;49.902;8.596;2023-11-21T02:02:21;10.00;99.90
6738;DHT22;3406;49.902;8.596;2023-11-21T02:04:47;10.00;99.90
6738;DHT22;3406;49.902;8.596;2023-11-21T02:07:14;10.00;99.90
6738;DHT22;3406;49.902;8.596;2023-11-21T02:09:42;10.10;99.90
6738;DHT22;3406;49.902;8.596;2023-11-21T02:12:08;10.10;99.90
6738;DHT22;3406;49.902;8.596;2023-11-21T02:14:36;10.10;99.90
6738;DHT22;3406;49.902;8.596;2023-11-21T02:17:03;10.10;99.90
6738;DHT22;3406;49.902;8.596;2023-11-21T02:19:30;10.20;99.90
6738;DHT22;3406;49.902;8.596;2023-11-21T02:21:58;10.20;99.90
6738;DHT22;3406;49.902;8.596;2023-11-21T02:24:29;10.10;99.90
6738;DHT22;3406;49.902;8.596;2023-11-21T02:26:56;10.10;99.90
6738;DHT22;3406;49.902;8.596;2023-11-21T02:29:23;10.20;99.90
6738;DHT22;3406;49.902;8.596;2023-11-21T02:31:54;10.10;99.90
6738;DHT22;3406;49.902;8.596;2023-11-21T02:34:21;10.20;99.90
6738;DHT22;3406;49.902;8.596;2023-11-21T02:36:49;10.20;99.90
6738;DHT22;3406;49.902;8.596;2023-11-21T02:39:16;10.20;99.90
6738;DHT22;3406;49.902;8.596;2023-11-21T02:41:44;10.20;99.90
6738;DHT22;3406;49.902;8.596;2023-11-21T02:44:11;10.20;99.90
6738;DHT22;3406;49.902;8.596;2023-11-21T02:46:38;10.20;99.90
6738;DHT22;3406;49.902;8.596;2023-11-21T02:49:05;10.20;99.90
6738;DHT22;3406;49.902;8.596;2023-11-21T02:51:32;10.20;99.90
6738;DHT22;3406;49.902;8.596;2023-11-21T02:53:59;10.20;99.90
6738;DHT22;3406;49.902;8.596;2023-11-21T02:56:28;10.20;99.90
6738;DHT22;3406;49.902;8.596;2023-11-21T02:58:56;10.20;99.90
6738;DHT22;3406;49.902;8.596;2023-11-21T03:01:23;10.20;99.90
6738;DHT22;3406;49.902;8.596;2023-11-21T03:03:50;10.20;99.90
6738;DHT22;3406;49.902;8.596;2023-11-21T03:06:17;10.20;99.90
6738;DHT22;3406;49.902;8.596;2023-11-21T03:08:44;10.20;99.90
6738;DHT22;3406;49.902;8.596;2023-11-21T03:11:11;10.20;99.90
6738;DHT22;3406;49.902;8.596;2023-11-21T03:13:38;10.30;99.90
6738;DHT22;3406;49.902;8.596;2023-11-21T03:16:08;10.20;99.90
6738;DHT22;3406;49.902;8.596;2023-11-21T03:18:35;10.20;99.90
6738;DHT22;3406;49.902;8.596;2023-11-21T03:21:03;10.20;99.90
6738;DHT22;3406;49.902;8.596;2023-11-21T03:23:29;10.20;99.90
6738;DHT22;3406;49.902;8.596;2023-11-21T03:25:56;10.20;99.90
6738;DHT22;3406;49.902;8.596;2023-11-21T03:28:23;10.20;99.90
6738;DHT22;3406;49.902;8.596;2023-11-21T03:30:50;10.20;99.90
6738;DHT22;3406;49.902;8.596;2023-11-21T03:33:18;10.30;99.90
6738;DHT22;3406;49.902;8.596;2023-11-21T03:35:44;10.40;99.90
6738;DHT22;3406;49.902;8.596;2023-11-21T03:38:11;10.40;99.90
6738;DHT22;3406;49.902;8.596;2023-11-21T03:40:38;10.40;99.90
6738;DHT22;3406;49.902;8.596;2023-11-21T03:43:05;10.40;99.90
6738;DHT22;3406;49.902;8.596;2023-11-21T03:45:32;10.40;99.90
6738;DHT22;3406;49.902;8.596;2023-11-21T03:47:59;10.50;99.90
6738;DHT22;3406;49.902;8.596;2023-11-21T03:50:28;10.50;99.90
6738;DHT22;3406;49.902;8.596;2023-11-21T03:52:55;10.50;99.90
6738;DHT22;3406;49.902;8.596;2023-11-21T03:55:21;10.60;99.90
6738;DHT22;3406;49.902;8.596;2023-11-21T03:57:49;10.60;99.90
6738;DHT22;3406;49.902;8.596;2023-11-21T04:00:17;10.60;99.90
6738;DHT22;3406;49.902;8.596;2023-11-21T04:02:45;10.70;99.90
6738;DHT22;3406;49.902;8.596;2023-11-21T04:05:12;10.70;99.90
6738;DHT22;3406;49.902;8.596;2023-11-21T04:07:39;10.70;99.90
6738;DHT22;3406;49.902;8.596;2023-11-21T04:10:07;10.70;99.90
6738;DHT22;3406;49.902;8.596;2023-11-21T04:12:34;10.70;99.90
6738;DHT22;3406;49.902;8.596;2023-11-21T04:15:01;10.70;99.90
6738;DHT22;3406;49.902;8.596;2023-11-21T04:17:27;10.70;99.90
6738;DHT22;3406;49.902;8.596;2023-11-21T04:19:54;10.70;99.90
6738;DHT22;3406;49.902;8.596;2023-11-21T04:22:21;10.70;99.90
6738;DHT22;3406;49.902;8.596;2023-11-21T04:24:49;10.70;99.90
6738;DHT22;3406;49.902;8.596;2023-11-21T04:27:15;10.70;99.90
6738;DHT22;3406;49.902;8.596;2023-11-21T04:29:43;10.70;99.90
6738;DHT22;3406;49.902;8.596;2023-11-21T04:32:10;10.70;99.90
6738;DHT22;3406;49.902;8.596;2023-11-21T04:34:38;10.70;99.90
6738;DHT22;3406;49.902;8.596;2023-11-21T04:37:04;10.70;99.90
6738;DHT22;3406;49.902;8.596;2023-11-21T04:39:32;10.70;99.90
6738;DHT22;3406;49.902;8.596;2023-11-21T04:41:59;10.70;99.90
6738;DHT22;3406;49.902;8.596;2023-11-21T04:44:26;10.70;99.90
6738;DHT22;3406;49.902;8.596;2023-11-21T04:46:53;10.60;99.90
6738;DHT22;3406;49.902;8.596;2023-11-21T04:49:19;10.60;99.90
6738;DHT22;3406;49.902;8.596;2023-11-21T04:51:46;10.70;99.90
6738;DHT22;3406;49.902;8.596;2023-11-21T04:54:13;10.70;99.90
6738;DHT22;3406;49.902;8.596;2023-11-21T04:56:39;10.70;99.90
6738;DHT22;3406;49.902;8.596;2023-11-21T04:59:08;10.70;99.90
6738;DHT22;3406;49.902;8.596;2023-11-21T05:01:35;10.60;99.90
6738;DHT22;3406;49.902;8.596;2023-11-21T05:04:02;10.60;99.90
6738;DHT22;3406;49.902;8.596;2023-11-21T05:06:31;10.50;99.90
6738;DHT22;3406;49.902;8.596;2023-11-21T05:08:58;10.50;99.90
6738;DHT22;3406;49.902;8.596;2023-11-21T05:11:25;10.50;99.90
6738;DHT22;3406;49.902;8.596;2023-11-21T05:13:51;10.50;99.90
6738;DHT22;3406;49.902;8.596;2023-11-21T05:16:20;10.40;99.90
6738;DHT22;3406;49.902;8.596;2023-11-21T05:18:47;10.40;99.90
6738;DHT22;3406;49.902;8.596;2023-11-21T05:21:15;10.40;99.90
6738;DHT22;3406;49.902;8.596;2023-11-21T05:23:42;10.30;99.90
6738;DHT22;3406;49.902;8.596;2023-11-21T05:26:09;10.30;99.90
6738;DHT22;3406;49.902;8.596;2023-11-21T05:28:35;10.30;99.90
6738;DHT22;3406;49.902;8.596;2023-11-21T05:31:02;10.40;99.90
6738;DHT22;3406;49.902;8.596;2023-11-21T05:33:30;10.30;99.90
6738;DHT22;3406;49.902;8.596;2023-11-21T05:35:58;10.40;99.90
6738;DHT22;3406;49.902;8.596;2023-11-21T05:38:25;10.40;99.90
6738;DHT22;3406;49.902;8.596;2023-11-21T05:40:52;10.40;99.90
6738;DHT22;3406;49.902;8.596;2023-11-21T05:43:18;10.40;99.90
6738;DHT22;3406;49.902;8.596;2023-11-21T05:45:45;10.40;99.90
6738;DHT22;3406;49.902;8.596;2023-11-21T05:48:11;10.40;99.90
6738;DHT22;3406;49.902;8.596;2023-11-21T05:50:40;10.40;99.90
6738;DHT22;3406;49.902;8.596;2023-11-21T05:53:06;10.30;99.90
6738;DHT22;3406;49.902;8.596;2023-11-21T05:55:35;10.30;99.90
6738;DHT22;3406;49.902;8.596;2023-11-21T05:58:02;10.30;99.90
6738;DHT22;3406;49.902;8.596;2023-11-21T06:00:29;10.30;99.90
6738;DHT22;3406;49.902;8.596;2023-11-21T06:02:57;10.30;99.90
6738;DHT22;3406;49.902;8.596;2023-11-21T06:05:25;10.30;99.90
6738;DHT22;3406;49.902;8.596;2023-11-21T06:07:53;10.30;99.90
6738;DHT22;3406;49.902;8.596;2023-11-21T06:10:22;10.30;99.90
6738;DHT22;3406;49.902;8.596;2023-11-21T06:12:49;10.30;99.90
6738;DHT22;3406;49.902;8.596;2023-11-21T06:15:16;10.30;99.90
6738;DHT22;3406;49.902;8.596;2023-11-21T06:17:44;10.30;99.90
6738;DHT22;3406;49.902;8.596;2023-11-21T06:20:15;10.30;99.90
6738;DHT22;3406;49.902;8.596;2023-11-21T06:22:44;10.30;99.90
6738;DHT22;3406;49.902;8.596;2023-11-21T06:25:13;10.30;99.90
6738;DHT22;3406;49.902;8.596;2023-11-21T06:27:42;10.30;99.90
6738;DHT22;3406;49.902;8.596;2023-11-21T06:30:10;10.40;99.90
6738;DHT22;3406;49.902;8.596;2023-11-21T06:32:37;10.40;99.90
6738;DHT22;3406;49.902;8.596;2023-11-21T06:35:06;10.40;99.90
6738;DHT22;3406;49.902;8.596;2023-11-21T06:37:35;10.40;99.90
6738;DHT22;3406;49.902;8.596;2023-11-21T06:40:02;10.40;99.90
6738;DHT22;3406;49.902;8.596;2023-11-21T06:42:31;10.40;99.90
6738;DHT22;3406;49.902;8.596;2023-11-21T06:44:59;10.50;99.90
6738;DHT22;3406;49.902;8.596;2023-11-21T06:47:29;10.40;99.90
6738;DHT22;3406;49.902;8.596;2023-11-21T06:49:56;10.40;99.90
6738;DHT22;3406;49.902;8.596;2023-11-21T06:52:23;10.40;99.90
6738;DHT22;3406;49.902;8.596;2023-11-21T06:54:50;10.40;99.90
6738;DHT22;3406;49.902;8.596;2023-11-21T06:57:16;10.40;99.90
6738;DHT22;3406;49.902;8.596;2023-11-21T06:59:44;10.50;99.90
6738;DHT22;3406;49.902;8.596;2023-11-21T07:02:11;10.50;99.90
6738;DHT22;3406;49.902;8.596;2023-11-21T07:04:38;10.50;99.90
6738;DHT22;3406;49.902;8.596;2023-11-21T07:07:07;10.40;99.90
6738;DHT22;3406;49.902;8.596;2023-11-21T07:09:33;10.50;99.90
6738;DHT22;3406;49.902;8.596;2023-11-21T07:12:00;10.50;99.90
6738;DHT22;3406;49.902;8.596;2023-11-21T07:14:29;10.50;99.90
6738;DHT22;3406;49.902;8.596;2023-11-21T07:16:57;10.50;99.90
6738;DHT22;3406;49.902;8.596;2023-11-21T07:19:23;10.50;99.90
6738;DHT22;3406;49.902;8.596;2023-11-21T07:21:50;10.50;99.90
6738;DHT22;3406;49.902;8.596;2023-11-21T07:24:17;10.50;99.90
6738;DHT22;3406;49.902;8.596;2023-11-21T07:26:44;10.50;99.90
6738;DHT22;3406;49.902;8.596;2023-11-21T07:29:10;10.50;99.90
6738;DHT22;3406;49.902;8.596;2023-11-21T07:31:38;10.50;99.90
6738;DHT22;3406;49.902;8.596;2023-11-21T07:34:08;10.50;99.90
6738;DHT22;3406;49.902;8.596;2023-11-21T07:36:35;10.50;99.90
6738;DHT22;3406;49.902;8.596;2023-11-21T07:39:02;10.50;99.90
6738;DHT22;3406;49.902;8.596;2023-11-21T07:41:29;10.60;99.90
6738;DHT22;3406;49.902;8.596;2023-11-21T07:43:56;10.50;99.90
6738;DHT22;3406;49.902;8.596;2023-11-21T07:46:22;10.50;99.90
6738;DHT22;3406;49.902;8.596;2023-11-21T07:48:49;10.60;99.90
6738;DHT22;3406;49.902;8.596;2023-11-21T07:51:19;10.60;99.90
6738;DHT22;3406;49.902;8.596;2023-11-21T07:53:45;10.60;99.90
6738;DHT22;3406;49.902;8.596;2023-11-21T07:56:12;10.60;99.90
6738;DHT22;3406;49.902;8.596;2023-11-21T07:58:39;10.70;99.90
6738;DHT22;3406;49.902;8.596;2023-11-21T08:01:06;10.60;99.90
6738;DHT22;3406;49.902;8.596;2023-11-21T08:03:33;10.60;99.90
6738;DHT22;3406;49.902;8.596;2023-11-21T08:06:00;10.60;99.90
6738;DHT22;3406;49.902;8.596;2023-11-21T08:08:30;10.60;99.90
6738;DHT22;3406;49.902;8.596;2023-11-21T08:10:57;10.60;99.90
6738;DHT22;3406;49.902;8.596;2023-11-21T08:13:27;10.50;99.90
6738;DHT22;3406;49.902;8.596;2023-11-21T08:15:54;10.50;99.90
6738;DHT22;3406;49.902;8.596;2023-11-21T08:18:22;10.50;99.90
6738;DHT22;3406;49.902;8.596;2023-11-21T08:20:49;10.50;99.90
6738;DHT22;3406;49.902;8.596;2023-11-21T08:23:16;10.50;99.90
6738;DHT22;3406;49.902;8.596;2023-11-21T08:25:45;10.60;99.90
6738;DHT22;3406;49.902;8.596;2023-11-21T08:28:12;10.60;99.90
6738;DHT22;3406;49.902;8.596;2023-11-21T08:30:40;10.60;99.90
6738;DHT22;3406;49.902;8.596;2023-11-21T08:33:07;10.60;99.90
6738;DHT22;3406;49.902;8.596;2023-11-21T08:35:33;10.60;99.90
6738;DHT22;3406;49.902;8.596;2023-11-21T08:38:01;10.60;99.90
6738;DHT22;3406;49.902;8.596;2023-11-21T08:40:29;10.70;99.90
6738;DHT22;3406;49.902;8.596;2023-11-21T08:42:57;10.70;99.90
6738;DHT22;3406;49.902;8.596;2023-11-21T08:45:24;10.70;99.90
6738;DHT22;3406;49.902;8.596;2023-11-21T08:47:51;10.70;99.90
6738;DHT22;3406;49.902;8.596;2023-11-21T08:50:18;10.70;99.90
6738;DHT22;3406;49.902;8.596;2023-11-21T08:52:45;10.80;99.90
6738;DHT22;3406;49.902;8.596;2023-11-21T08:55:12;10.80;99.90
6738;DHT22;3406;49.902;8.596;2023-11-21T08:57:40;10.80;99.90
6738;DHT22;3406;49.902;8.596;2023-11-21T09:00:09;10.80;99.90
6738;DHT22;3406;49.902;8.596;2023-11-21T09:02:37;10.80;99.90
6738;DHT22;3406;49.902;8.596;2023-11-21T09:05:04;10.80;99.90
6738;DHT22;3406;49.902;8.596;2023-11-21T09:07:32;11.00;99.90
6738;DHT22;3406;49.902;8.596;2023-11-21T09:09:58;11.00;99.90
6738;DHT22;3406;49.902;8.596;2023-11-21T09:12:25;11.00;99.90
6738;DHT22;3406;49.902;8.596;2023-11-21T09:14:52;11.00;99.90
6738;DHT22;3406;49.902;8.596;2023-11-21T09:17:20;11.00;99.90
6738;DHT22;3406;49.902;8.596;2023-11-21T09:19:46;10.90;99.90
6738;DHT22;3406;49.902;8.596;2023-11-21T09:22:16;10.90;99.90
6738;DHT22;3406;49.902;8.596;2023-11-21T09:24:43;10.90;99.90
6738;DHT22;3406;49.902;8.596;2023-11-21T09:27:10;10.90;99.90
6738;DHT22;3406;49.902;8.596;2023-11-21T09:29:37;10.90;99.90
6738;DHT22;3406;49.902;8.596;2023-11-21T09:32:04;10.80;99.90
6738;DHT22;3406;49.902;8.596;2023-11-21T09:34:33;10.80;99.90
6738;DHT22;3406;49.902;8.596;2023-11-21T09:37:01;10.80;99.90
6738;DHT22;3406;49.902;8.596;2023-11-21T09:39:31;10.80;99.90
6738;DHT22;3406;49.902;8.596;2023-11-21T09:42:04;10.80;99.90
6738;DHT22;3406;49.902;8.596;2023-11-21T09:44:35;10.80;99.90
6738;DHT22;3406;49.902;8.596;2023-11-21T09:47:03;10.80;99.90
6738;DHT22;3406;49.902;8.596;2023-11-21T09:49:33;10.80;99.90
6738;DHT22;3406;49.902;8.596;2023-11-21T09:52:01;10.80;99.90
6738;DHT22;3406;49.902;8.596;2023-11-21T09:54:30;10.90;99.90
6738;DHT22;3406;49.902;8.596;2023-11-21T09:56:58;11.00;99.90
6738;DHT22;3406;49.902;8.596;2023-11-21T09:59:30;11.00;99.90
6738;DHT22;3406;49.902;8.596;2023-11-21T10:01:57;11.10;99.90
6738;DHT22;3406;49.902;8.596;2023-11-21T10:04:25;11.10;99.90
6738;DHT22;3406;49.902;8.596;2023-11-21T10:06:53;11.10;99.90
6738;DHT22;3406;49.902;8.596;2023-11-21T10:09:21;11.10;99.90
6738;DHT22;3406;49.902;8.596;2023-11-21T10:11:49;11.20;99.90
6738;DHT22;3406;49.902;8.596;2023-11-21T10:14:19;11.20;99.90
6738;DHT22;3406;49.902;8.596;2023-11-21T10:16:51;11.20;99.90
6738;DHT22;3406;49.902;8.596;2023-11-21T10:19:19;11.30;99.90
6738;DHT22;3406;49.902;8.596;2023-11-21T10:21:46;11.30;99.90
6738;DHT22;3406;49.902;8.596;2023-11-21T10:24:14;11.40;99.90
6738;DHT22;3406;49.902;8.596;2023-11-21T10:26:42;11.30;99.90
6738;DHT22;3406;49.902;8.596;2023-11-21T10:29:09;11.40;99.90
6738;DHT22;3406;49.902;8.596;2023-11-21T10:31:37;11.40;99.90
6738;DHT22;3406;49.902;8.596;2023-11-21T10:34:15;11.30;99.90
6738;DHT22;3406;49.902;8.596;2023-11-21T10:36:42;11.30;99.90
6738;DHT22;3406;49.902;8.596;2023-11-21T10:39:09;11.40;99.90
6738;DHT22;3406;49.902;8.596;2023-11-21T10:41:37;11.30;99.90
6738;DHT22;3406;49.902;8.596;2023-11-21T10:44:05;11.40;99.90
6738;DHT22;3406;49.902;8.596;2023-11-21T10:46:34;11.50;99.90
6738;DHT22;3406;49.902;8.596;2023-11-21T10:49:01;11.50;99.90
6738;DHT22;3406;49.902;8.596;2023-11-21T10:51:28;11.50;99.90
6738;DHT22;3406;49.902;8.596;2023-11-21T10:53:54;11.60;99.90
6738;DHT22;3406;49.902;8.596;2023-11-21T10:56:23;11.60;99.90
6738;DHT22;3406;49.902;8.596;2023-11-21T10:58:52;11.70;99.90
6738;DHT22;3406;49.902;8.596;2023-11-21T11:01:19;11.70;99.80
6738;DHT22;3406;49.902;8.596;2023-11-21T11:03:47;11.70;99.60
6738;DHT22;3406;49.902;8.596;2023-11-21T11:06:15;11.60;99.40
6738;DHT22;3406;49.902;8.596;2023-11-21T11:08:43;11.60;99.50
6738;DHT22;3406;49.902;8.596;2023-11-21T11:11:11;11.60;99.60
6738;DHT22;3406;49.902;8.596;2023-11-21T11:13:41;11.60;99.40
6738;DHT22;3406;49.902;8.596;2023-11-21T11:16:12;11.60;99.20
6738;DHT22;3406;49.902;8.596;2023-11-21T11:18:42;11.60;99.00
6738;DHT22;3406;49.902;8.596;2023-11-21T11:21:20;11.60;99.00
6738;DHT22;3406;49.902;8.596;2023-11-21T11:24:06;11.60;98.90
6738;DHT22;3406;49.902;8.596;2023-11-21T11:26:45;11.60;98.80
6738;DHT22;3406;49.902;8.596;2023-11-21T11:29:23;11.60;98.70
6738;DHT22;3406;49.902;8.596;2023-11-21T11:32:03;11.70;98.60
6738;DHT22;3406;49.902;8.596;2023-11-21T11:34:36;11.70;98.60
6738;DHT22;3406;49.902;8.596;2023-11-21T11:37:06;11.80;98.40
6738;DHT22;3406;49.902;8.596;2023-11-21T11:39:36;11.80;98.30
6738;DHT22;3406;49.902;8.596;2023-11-21T11:42:04;11.90;98.30
6738;DHT22;3406;49.902;8.596;2023-11-21T11:44:48;11.90;98.10
6738;DHT22;3406;49.902;8.596;2023-11-21T11:47:21;12.00;98.00
6738;DHT22;3406;49.902;8.596;2023-11-21T11:50:02;12.10;97.80
6738;DHT22;3406;49.902;8.596;2023-11-21T11:52:37;12.20;97.70
6738;DHT22;3406;49.902;8.596;2023-11-21T11:55:06;12.30;97.70
6738;DHT22;3406;49.902;8.596;2023-11-21T11:57:35;12.40;97.50
6738;DHT22;3406;49.902;8.596;2023-11-21T12:00:33;12.40;97.20
6738;DHT22;3406;49.902;8.596;2023-11-21T12:03:05;12.50;97.10
6738;DHT22;3406;49.902;8.596;2023-11-21T12:05:33;12.50;96.80
6738;DHT22;3406;49.902;8.596;2023-11-21T12:08:02;12.50;96.60
6738;DHT22;3406;49.902;8.596;2023-11-21T12:10:31;12.50;96.40
6738;DHT22;3406;49.902;8.596;2023-11-21T12:13:07;12.60;96.30
6738;DHT22;3406;49.902;8.596;2023-11-21T12:15:38;12.60;96.00
6738;DHT22;3406;49.902;8.596;2023-11-21T12:18:08;12.60;95.80
6738;DHT22;3406;49.902;8.596;2023-11-21T12:20:35;12.70;95.80
6738;DHT22;3406;49.902;8.596;2023-11-21T12:23:05;12.70;95.60
6738;DHT22;3406;49.902;8.596;2023-11-21T12:25:32;12.70;95.50
6738;DHT22;3406;49.902;8.596;2023-11-21T12:28:00;12.80;95.40
6738;DHT22;3406;49.902;8.596;2023-11-21T12:30:30;12.80;95.20
6738;DHT22;3406;49.902;8.596;2023-11-21T12:32:58;12.80;94.80
6738;DHT22;3406;49.902;8.596;2023-11-21T12:35:28;12.80;94.40
6738;DHT22;3406;49.902;8.596;2023-11-21T12:37:56;12.70;94.10
6738;DHT22;3406;49.902;8.596;2023-11-21T12:40:23;12.80;94.10
6738;DHT22;3406;49.902;8.596;2023-11-21T12:42:53;12.70;93.80
6738;DHT22;3406;49.902;8.596;2023-11-21T12:45:21;12.70;93.60
6738;DHT22;3406;49.902;8.596;2023-11-21T12:47:50;12.70;93.40
6738;DHT22;3406;49.902;8.596;2023-11-21T12:50:19;12.70;93.30
6738;DHT22;3406;49.902;8.596;2023-11-21T12:52:51;12.70;93.20
6738;DHT22;3406;49.902;8.596;2023-11-21T12:55:20;12.60;93.00
6738;DHT22;3406;49.902;8.596;2023-11-21T12:57:49;12.60;92.80
6738;DHT22;3406;49.902;8.596;2023-11-21T13:00:20;12.60;92.70
6738;DHT22;3406;49.902;8.596;2023-11-21T13:02:54;12.60;92.50
6738;DHT22;3406;49.902;8.596;2023-11-21T13:05:29;12.60;92.50
6738;DHT22;3406;49.902;8.596;2023-11-21T13:07:59;12.60;92.30
6738;DHT22;3406;49.902;8.596;2023-11-21T13:10:29;12.60;92.30
6738;DHT22;3406;49.902;8.596;2023-11-21T13:12:57;12.60;92.20
6738;DHT22;3406;49.902;8.596;2023-11-21T13:15:25;12.60;92.10
6738;DHT22;3406;49.902;8.596;2023-11-21T13:17:52;12.60;91.90
6738;DHT22;3406;49.902;8.596;2023-11-21T13:20:21;12.50;91.60
6738;DHT22;3406;49.902;8.596;2023-11-21T13:22:48;12.50;91.50
6738;DHT22;3406;49.902;8.596;2023-11-21T13:25:17;12.50;91.40
6738;DHT22;3406;49.902;8.596;2023-11-21T13:27:45;12.40;91.30
6738;DHT22;3406;49.902;8.596;2023-11-21T13:30:13;12.40;91.00
6738;DHT22;3406;49.902;8.596;2023-11-21T13:32:42;12.40;90.90
6738;DHT22;3406;49.902;8.596;2023-11-21T13:35:10;12.30;90.80
6738;DHT22;3406;49.902;8.596;2023-11-21T13:37:47;12.30;90.80
6738;DHT22;3406;49.902;8.596;2023-11-21T13:40:14;12.30;90.80
6738;DHT22;3406;49.902;8.596;2023-11-21T13:42:46;12.30;90.70
6738;DHT22;3406;49.902;8.596;2023-11-21T13:45:13;12.30;90.70
6738;DHT22;3406;49.902;8.596;2023-11-21T13:47:40;12.30;90.90
6738;DHT22;3406;49.902;8.596;2023-11-21T13:50:07;12.40;90.60
6738;DHT22;3406;49.902;8.596;2023-11-21T13:52:42;12.30;90.50
6738;DHT22;3406;49.902;8.596;2023-11-21T13:55:10;12.30;90.50
6738;DHT22;3406;49.902;8.596;2023-11-21T13:57:41;12.30;90.50
6738;DHT22;3406;49.902;8.596;2023-11-21T14:00:12;12.20;90.40
6738;DHT22;3406;49.902;8.596;2023-11-21T14:03:00;12.20;90.40
6738;DHT22;3406;49.902;8.596;2023-11-21T14:05:27;12.20;90.30
6738;DHT22;3406;49.902;8.596;2023-11-21T14:07:57;12.20;90.20
6738;DHT22;3406;49.902;8.596;2023-11-21T14:10:28;12.20;90.20
6738;DHT22;3406;49.902;8.596;2023-11-21T14:13:02;12.10;90.20
6738;DHT22;3406;49.902;8.596;2023-11-21T14:15:31;12.20;90.30
6738;DHT22;3406;49.902;8.596;2023-11-21T14:17:59;12.20;90.30
6738;DHT22;3406;49.902;8.596;2023-11-21T14:20:28;12.10;90.20
6738;DHT22;3406;49.902;8.596;2023-11-21T14:22:55;12.10;90.10
6738;DHT22;3406;49.902;8.596;2023-11-21T14:25:22;12.20;90.20
6738;DHT22;3406;49.902;8.596;2023-11-21T14:27:49;12.10;90.10
6738;DHT22;3406;49.902;8.596;2023-11-21T14:30:16;12.10;90.10
6738;DHT22;3406;49.902;8.596;2023-11-21T14:32:46;12.10;90.10
6738;DHT22;3406;49.902;8.596;2023-11-21T14:35:13;12.10;90.10
6738;DHT22;3406;49.902;8.596;2023-11-21T14:37:40;12.10;90.10
6738;DHT22;3406;49.902;8.596;2023-11-21T14:40:08;12.10;90.00
6738;DHT22;3406;49.902;8.596;2023-11-21T14:42:34;12.10;90.10
6738;DHT22;3406;49.902;8.596;2023-11-21T14:45:05;12.10;90.00
6738;DHT22;3406;49.902;8.596;2023-11-21T14:47:33;12.10;90.00
6738;DHT22;3406;49.902;8.596;2023-11-21T14:50:01;12.00;89.90
6738;DHT22;3406;49.902;8.596;2023-11-21T14:52:48;12.00;90.00
6738;DHT22;3406;49.902;8.596;2023-11-21T14:55:21;11.90;90.00
6738;DHT22;3406;49.902;8.596;2023-11-21T14:57:56;11.90;90.00
6738;DHT22;3406;49.902;8.596;2023-11-21T15:00:27;12.00;90.10
6738;DHT22;3406;49.902;8.596;2023-11-21T15:03:09;11.90;90.00
6738;DHT22;3406;49.902;8.596;2023-11-21T15:05:45;11.90;90.00
6738;DHT22;3406;49.902;8.596;2023-11-21T15:08:10;11.90;90.40
6738;DHT22;3406;49.902;8.596;2023-11-21T15:10:47;11.90;90.10
6738;DHT22;3406;49.902;8.596;2023-11-21T15:13:18;11.90;90.10
6738;DHT22;3406;49.902;8.596;2023-11-21T15:15:45;11.90;90.20
6738;DHT22;3406;49.902;8.596;2023-11-21T15:18:11;11.90;90.20
6738;DHT22;3406;49.902;8.596;2023-11-21T15:20:39;11.80;90.20
6738;DHT22;3406;49.902;8.596;2023-11-21T15:23:08;11.90;90.20
6738;DHT22;3406;49.902;8.596;2023-11-21T15:25:35;11.80;90.30
6738;DHT22;3406;49.902;8.596;2023-11-21T15:28:02;11.70;90.30
6738;DHT22;3406;49.902;8.596;2023-11-21T15:30:30;11.70;90.30
6738;DHT22;3406;49.902;8.596;2023-11-21T15:32:58;11.70;90.30
6738;DHT22;3406;49.902;8.596;2023-11-21T15:35:25;11.60;90.30
6738;DHT22;3406;49.902;8.596;2023-11-21T15:37:53;11.60;90.40
6738;DHT22;3406;49.902;8.596;2023-11-21T15:40:24;11.50;90.40
6738;DHT22;3406;49.902;8.596;2023-11-21T15:42:50;11.50;90.50
6738;DHT22;3406;49.902;8.596;2023-11-21T15:45:17;11.50;90.50
6738;DHT22;3406;49.902;8.596;2023-11-21T15:47:47;11.50;90.50
6738;DHT22;3406;49.902;8.596;2023-11-21T15:50:13;11.40;90.50
6738;DHT22;3406;49.902;8.596;2023-11-21T15:52:41;11.40;90.50
6738;DHT22;3406;49.902;8.596;2023-11-21T15:55:09;11.30;90.60
6738;DHT22;3406;49.902;8.596;2023-11-21T15:57:37;11.30;90.60
6738;DHT22;3406;49.902;8.596;2023-11-21T16:00:05;11.30;90.70
6738;DHT22;3406;49.902;8.596;2023-11-21T16:02:41;11.20;90.80
6738;DHT22;3406;49.902;8.596;2023-11-21T16:05:08;11.20;91.00
6738;DHT22;3406;49.902;8.596;2023-11-21T16:07:35;11.20;91.00
6738;DHT22;3406;49.902;8.596;2023-11-21T16:10:04;11.20;91.20